Date,TemperatureHighF,TemperatureAvgF,TemperatureLowF,DewpointHighF,DewpointAvgF,DewpointLowF,HumidityHigh,HumidityAvg,HumidityLow,PressureMaxIn,PressureMinIn,WindSpeedMaxMPH,WindSpeedAvgMPH,GustSpeedMaxMPH,PrecipitationSumIn
2013-2-1,40,33,24,26,11,-1,65,41,21,30.52,29.98,14,2,20,0.00
2013-2-2,44,34,19,30,11,4,68,41,24,30.54,30.15,15,1,16,0.00
2013-2-3,46,40,34,34,28,21,91,65,38,30.15,29.97,11,1,13,0.00
2013-2-4,48,36,26,24,20,15,79,54,30,30.27,30.11,7,0,11,0.00
2013-2-5,58,50,41,33,31,28,70,50,34,30.10,30.00,9,1,11,0.00
2013-2-6,60,47,36,33,28,20,83,52,22,30.40,30.08,6,1,12,0.00
2013-2-7,47,40,34,42,36,31,100,83,66,30.46,30.14,5,1,6,0.52
2013-2-8,53,44,38,44,39,28,100,84,52,30.15,29.93,12,2,13,0.63
2013-2-9,40,35,31,28,24,19,74,65,45,30.39,30.14,9,1,14,0.00
2013-2-10,51,47,43,39,25,17,85,44,26,30.48,30.34,5,1,6,0.02
2013-2-11,62,54,43,60,52,38,100,93,83,30.34,30.03,13,1,14,0.03
2013-2-12,59,52,45,54,33,22,90,52,26,30.20,30.04,10,1,11,0.00
2013-2-13,49,45,41,46,43,32,100,92,51,30.07,29.74,10,0,12,0.33
2013-2-14,50,40,31,36,32,29,96,74,44,30.20,29.93,7,0,7,0.00
2013-2-15,61,46,34,38,32,26,91,62,27,30.22,30.06,6,0,10,0.00
2013-2-16,45,36,29,35,32,28,98,88,62,30.08,29.95,5,0,9,0.24
2013-2-17,35,28,22,28,14,3,96,59,27,30.41,30.02,15,2,19,0.06
2013-2-18,50,33,19,25,16,10,84,53,25,30.55,30.38,7,0,9,0.10
2013-2-19,52,43,32,50,37,25,97,82,56,30.38,29.98,15,1,18,0.07
2013-2-20,50,42,33,19,13,7,47,31,17,30.27,30.12,13,2,14,0.00
2013-2-21,53,39,26,21,17,13,69,43,22,30.39,30.23,6,0,10,0.00
2013-2-22,40,35,30,35,30,19,99,83,43,30.47,30.26,4,0,5,0.23
2013-2-23,42,39,35,42,39,35,100,100,99,30.27,29.93,3,0,6,0.61
2013-2-24,61,49,42,46,36,24,100,68,26,30.15,29.90,7,1,11,0.03
2013-2-25,42,36,30,28,23,20,72,59,43,30.35,30.15,5,0,5,0.00
2013-2-26,56,44,33,56,41,24,100,90,66,30.27,29.69,10,2,13,0.71
2013-2-27,59,49,42,47,39,33,100,72,38,29.90,29.72,15,2,15,0.00
2013-2-28,47,42,35,38,30,24,90,66,41,29.97,29.80,11,1,15,0.00